createdAt,value
2018-02-10T00:01:11.934Z,63.33
2018-02-10T00:03:39.439Z,63.70
2018-02-10T00:06:06.959Z,64.12
2018-02-10T00:08:34.491Z,63.40
2018-02-10T00:11:02.050Z,65.35
2018-02-10T00:13:29.575Z,63.35
2018-02-10T00:15:57.122Z,66.37
2018-02-10T00:18:25.392Z,65.07
2018-02-10T00:20:52.949Z,62.33
2018-02-10T00:23:20.468Z,71.65
2018-02-10T00:25:47.994Z,63.42
2018-02-10T00:28:15.518Z,60.70
2018-02-10T00:30:43.053Z,57.53
2018-02-10T00:33:10.630Z,60.38
2018-02-10T00:35:38.173Z,65.18
2018-02-10T00:38:05.686Z,62.83
2018-02-10T00:40:33.999Z,65.70
2018-02-10T00:43:01.523Z,61.88
2018-02-10T00:45:29.038Z,61.33
2018-02-10T00:47:56.554Z,63.72
2018-02-10T00:50:24.101Z,69.68
2018-02-10T00:52:51.661Z,65.95
2018-02-10T00:55:19.920Z,66.05
2018-02-10T00:57:48.210Z,63.05
2018-02-10T01:00:16.500Z,59.85
2018-02-10T01:02:44.011Z,61.88
2018-02-10T01:05:11.564Z,62.45
2018-02-10T01:07:39.101Z,66.80
2018-02-10T01:10:06.626Z,63.75
2018-02-10T01:12:34.147Z,63.67
2018-02-10T01:15:01.654Z,66.43
2018-02-10T01:17:29.966Z,68.53
2018-02-10T01:19:57.544Z,68.32
2018-02-10T01:22:25.051Z,72.20
2018-02-10T01:24:53.370Z,69.85
2018-02-10T01:27:20.905Z,68.47
2018-02-10T01:29:48.449Z,63.67
2018-02-10T01:32:16.741Z,75.10
2018-02-10T01:34:44.262Z,67.97
2018-02-10T01:37:11.786Z,72.97
2018-02-10T01:39:40.067Z,71.70
2018-02-10T01:42:07.582Z,63.85
2018-02-10T01:44:35.862Z,66.50
2018-02-10T01:47:03.372Z,70.00
2018-02-10T01:49:30.908Z,69.55
2018-02-10T01:51:58.417Z,72.70
2018-02-10T01:54:26.706Z,73.78
2018-02-10T01:56:54.990Z,69.72
2018-02-10T01:59:22.572Z,74.43
2018-02-10T02:01:50.078Z,76.68
2018-02-10T02:04:17.594Z,68.40
2018-02-10T02:06:45.110Z,70.12
2018-02-10T02:09:12.618Z,68.80
2018-02-10T02:11:40.137Z,69.65
2018-02-10T02:14:08.423Z,75.43
2018-02-10T02:16:36.717Z,74.87
2018-02-10T02:19:04.232Z,75.82
2018-02-10T02:21:31.750Z,71.80
2018-02-10T02:23:59.263Z,74.93
2018-02-10T02:26:27.540Z,75.10
2018-02-10T02:28:55.879Z,72.47
2018-02-10T02:31:23.439Z,68.53
2018-02-10T02:33:50.959Z,64.75
2018-02-10T02:36:18.473Z,70.12
2018-02-10T02:38:45.995Z,75.03
2018-02-10T02:41:13.526Z,73.68
2018-02-10T02:43:41.809Z,78.30
2018-02-10T02:46:10.086Z,69.93
2018-02-10T02:48:37.651Z,71.25
2018-02-10T02:51:05.199Z,66.93
2018-02-10T02:53:33.551Z,71.55
2018-02-10T02:56:01.072Z,71.25
2018-02-10T02:58:28.639Z,68.35
2018-02-10T03:00:56.182Z,67.78
2018-02-10T03:03:23.696Z,66.95
2018-02-10T03:05:51.273Z,71.55
2018-02-10T03:08:18.825Z,74.05
2018-02-10T03:10:47.109Z,74.65
2018-02-10T03:13:15.388Z,72.95
2018-02-10T03:15:43.672Z,71.82
2018-02-10T03:18:11.972Z,72.90
2018-02-10T03:20:39.489Z,72.43
2018-02-10T03:23:07.017Z,79.35
2018-02-10T03:25:34.534Z,76.45
2018-02-10T03:28:02.050Z,75.60
2018-02-10T03:30:29.585Z,76.05
2018-02-10T03:32:57.147Z,72.85
2018-02-10T03:35:24.704Z,73.03
2018-02-10T03:37:52.207Z,71.75
2018-02-10T03:40:20.499Z,73.12
2018-02-10T03:42:48.778Z,72.12
2018-02-10T03:45:17.083Z,77.70
2018-02-10T03:47:44.620Z,75.12
2018-02-10T03:50:12.183Z,68.15
2018-02-10T03:52:39.721Z,69.85
2018-02-10T03:55:07.243Z,68.37
2018-02-10T03:57:35.547Z,71.40
2018-02-10T04:00:03.066Z,68.60
2018-02-10T04:02:30.581Z,72.00
2018-02-10T04:04:58.098Z,66.35
2018-02-10T04:07:25.644Z,67.57
2018-02-10T04:09:53.147Z,74.68
2018-02-10T04:12:20.739Z,70.70
2018-02-10T04:14:48.241Z,69.12
2018-02-10T04:17:15.779Z,75.57
2018-02-10T04:19:43.275Z,72.25
2018-02-10T04:22:10.794Z,68.97
2018-02-10T04:24:38.299Z,70.53
2018-02-10T04:27:05.853Z,73.97
2018-02-10T04:29:33.367Z,73.65
2018-02-10T04:32:00.868Z,71.37
2018-02-10T04:34:28.389Z,71.87
2018-02-10T04:36:55.911Z,70.95
2018-02-10T04:39:24.225Z,70.15
2018-02-10T04:41:51.753Z,75.85
2018-02-10T04:44:19.265Z,70.12
2018-02-10T04:46:46.801Z,71.20
2018-02-10T04:49:14.350Z,72.45
2018-02-10T04:51:41.862Z,75.87
2018-02-10T04:54:09.559Z,72.68
2018-02-10T04:56:37.833Z,68.25
2018-02-10T04:59:07.121Z,69.68
2018-02-10T05:01:34.646Z,66.57
2018-02-10T05:04:02.161Z,64.62
2018-02-10T05:06:29.760Z,69.87
2018-02-10T05:08:57.294Z,72.20
2018-02-10T05:11:24.823Z,69.03
2018-02-10T05:13:53.103Z,66.15
2018-02-10T05:16:21.387Z,66.90
2018-02-10T05:18:49.664Z,65.25
2018-02-10T05:21:17.937Z,67.80
2018-02-10T05:23:46.230Z,72.97
2018-02-10T05:26:13.759Z,70.32
2018-02-10T05:28:41.266Z,70.93
2018-02-10T05:31:08.787Z,71.03
2018-02-10T05:33:37.063Z,68.30
2018-02-10T05:36:05.338Z,70.47
2018-02-10T05:38:33.605Z,64.18
2018-02-10T05:41:01.166Z,62.10
2018-02-10T05:43:28.661Z,66.37
2018-02-10T05:45:56.171Z,61.78
2018-02-10T05:48:23.700Z,71.90
2018-02-10T05:50:51.223Z,70.25
2018-02-10T05:53:18.755Z,68.68
2018-02-10T05:55:46.272Z,66.22
2018-02-10T05:58:13.827Z,71.03
2018-02-10T06:00:41.361Z,68.75
2018-02-10T06:03:08.983Z,70.20
2018-02-10T06:05:37.316Z,67.15
2018-02-10T06:08:04.850Z,68.53
2018-02-10T06:10:32.373Z,71.65
2018-02-10T06:12:59.903Z,69.68
2018-02-10T06:15:27.447Z,66.22
2018-02-10T06:17:54.959Z,67.50
2018-02-10T06:20:22.477Z,64.28
2018-02-10T06:22:49.993Z,66.43
2018-02-10T06:25:17.528Z,69.93
2018-02-10T06:27:45.079Z,67.10
2018-02-10T06:30:12.618Z,68.60
2018-02-10T06:32:40.170Z,64.90
2018-02-10T06:35:07.677Z,70.65
2018-02-10T06:37:35.354Z,65.00
2018-02-10T06:40:02.871Z,63.10
2018-02-10T06:42:30.397Z,66.00
2018-02-10T06:44:58.669Z,68.65
2018-02-10T06:47:26.945Z,66.85
2018-02-10T06:49:55.237Z,66.25
2018-02-10T06:52:22.754Z,69.72
2018-02-10T06:54:50.264Z,66.78
2018-02-10T06:57:17.783Z,62.40
2018-02-10T06:59:45.319Z,66.82
2018-02-10T07:02:12.817Z,67.75
2018-02-10T07:04:40.341Z,60.90
2018-02-10T07:07:07.876Z,64.62
2018-02-10T07:09:35.426Z,66.28
2018-02-10T07:12:02.971Z,64.37
2018-02-10T07:14:30.522Z,63.60
2018-02-10T07:16:58.035Z,63.13
2018-02-10T07:19:25.562Z,62.20
2018-02-10T07:21:53.071Z,65.45
2018-02-10T07:24:20.622Z,62.62
2018-02-10T07:26:48.897Z,67.20
2018-02-10T07:29:16.399Z,59.90
2018-02-10T07:31:43.932Z,61.35
2018-02-10T07:34:11.491Z,64.80
2018-02-10T07:36:39.729Z,63.22
2018-02-10T07:39:07.234Z,65.68
2018-02-10T07:41:35.565Z,66.60
2018-02-10T07:44:03.070Z,59.33
2018-02-10T07:46:30.602Z,58.38
2018-02-10T07:48:58.103Z,61.50
2018-02-10T07:51:26.431Z,62.45
2018-02-10T07:53:53.982Z,63.38
2018-02-10T07:56:21.513Z,65.57
2018-02-10T07:58:49.041Z,64.57
2018-02-10T08:01:16.565Z,65.70
2018-02-10T08:03:44.081Z,63.03
2018-02-10T08:06:12.377Z,59.17
2018-02-10T08:08:39.895Z,64.47
2018-02-10T08:11:07.407Z,59.15
2018-02-10T08:13:34.929Z,61.60
2018-02-10T08:16:03.208Z,57.65
2018-02-10T08:18:31.475Z,53.40
2018-02-10T08:20:59.745Z,59.08
2018-02-10T08:23:27.263Z,66.07
2018-02-10T08:25:54.806Z,56.70
2018-02-10T08:28:22.312Z,68.07
2018-02-10T08:30:49.837Z,57.70
2018-02-10T08:33:17.358Z,71.40
2018-02-10T08:35:44.870Z,64.50
2018-02-10T08:38:12.389Z,60.08
2018-02-10T08:40:39.911Z,59.70
2018-02-10T08:43:07.430Z,56.92
2018-02-10T08:45:34.958Z,60.65
2018-02-10T08:48:03.288Z,67.10
2018-02-10T08:50:30.822Z,59.63
2018-02-10T08:52:58.357Z,59.10
2018-02-10T08:55:26.649Z,55.42
2018-02-10T08:57:54.154Z,59.08
2018-02-10T09:00:21.656Z,60.63
2018-02-10T09:02:49.183Z,64.95
2018-02-10T09:05:17.627Z,63.95
2018-02-10T09:07:45.187Z,60.95
2018-02-10T09:10:12.709Z,63.08
2018-02-10T09:12:40.211Z,60.05
2018-02-10T09:15:07.783Z,61.88
2018-02-10T09:17:35.318Z,63.92
2018-02-10T09:20:02.842Z,63.45
2018-02-10T09:22:31.116Z,59.65
2018-02-10T09:24:59.427Z,60.45
2018-02-10T09:27:26.987Z,60.42
2018-02-10T09:29:54.499Z,53.60
2018-02-10T09:32:22.009Z,58.30
2018-02-10T09:34:49.530Z,60.97
2018-02-10T09:37:17.838Z,54.70
2018-02-10T09:39:45.374Z,61.13
2018-02-10T09:42:13.683Z,60.88
2018-02-10T09:44:41.199Z,60.53
2018-02-10T09:47:08.731Z,56.55
2018-02-10T09:49:36.293Z,54.65
2018-02-10T09:52:03.819Z,60.60
2018-02-10T09:54:31.343Z,61.65
2018-02-10T09:56:59.619Z,54.20
2018-02-10T09:59:27.901Z,57.72
2018-02-10T10:01:56.206Z,54.35
2018-02-10T10:04:23.749Z,59.58
2018-02-10T10:06:51.305Z,60.40
2018-02-10T10:09:19.618Z,57.05
2018-02-10T10:11:47.159Z,59.30
2018-02-10T10:14:14.662Z,54.35
2018-02-10T10:16:42.168Z,59.65
2018-02-10T10:19:09.673Z,59.33
2018-02-10T10:21:37.327Z,55.95
2018-02-10T10:24:04.886Z,52.30
2018-02-10T10:26:32.402Z,52.60
2018-02-10T10:29:03.423Z,53.92
2018-02-10T10:31:30.946Z,50.40
2018-02-10T10:33:58.465Z,52.15
2018-02-10T10:36:26.742Z,52.17
2018-02-10T10:38:55.013Z,54.20
2018-02-10T10:41:23.299Z,56.63
2018-02-10T10:43:50.805Z,50.90
2018-02-10T10:46:18.339Z,50.60
2018-02-10T10:48:45.872Z,50.33
2018-02-10T10:51:14.187Z,51.25
2018-02-10T10:53:41.736Z,48.35
2018-02-10T10:56:09.232Z,50.70
2018-02-10T10:58:36.754Z,48.97
2018-02-10T11:01:04.278Z,46.97
2018-02-10T11:03:31.780Z,46.92
2018-02-10T11:05:59.284Z,44.22
2018-02-10T11:08:26.825Z,45.50
2018-02-10T11:10:54.346Z,46.75
2018-02-10T11:13:21.875Z,47.20
2018-02-10T11:15:50.149Z,47.83
2018-02-10T11:18:18.426Z,42.15
2018-02-10T11:20:45.965Z,46.55
2018-02-10T11:23:13.521Z,40.58
2018-02-10T11:25:41.043Z,42.97
2018-02-10T11:28:08.570Z,34.53
2018-02-10T11:30:36.070Z,43.40
2018-02-10T11:33:03.574Z,41.33
2018-02-10T11:35:31.097Z,22.37
2018-02-10T11:37:58.651Z,37.33
2018-02-10T11:40:26.194Z,38.38
2018-02-10T11:42:53.739Z,36.42
2018-02-10T11:45:21.245Z,34.15
2018-02-10T11:47:48.780Z,40.60
2018-02-10T11:50:16.339Z,25.50
2018-02-10T11:52:43.834Z,37.05
2018-02-10T11:55:11.347Z,41.90
2018-02-10T11:57:38.864Z,37.80
2018-02-10T12:00:06.516Z,32.28
2018-02-10T12:02:34.111Z,34.55
2018-02-10T12:05:02.406Z,30.45
2018-02-10T12:07:29.925Z,30.62
2018-02-10T12:09:57.458Z,28.55
2018-02-10T12:12:25.019Z,36.58
2018-02-10T12:14:52.555Z,28.73
2018-02-10T12:17:20.097Z,34.85
2018-02-10T12:19:47.623Z,34.83
2018-02-10T12:22:15.163Z,21.52
2018-02-10T12:24:42.710Z,30.52
2018-02-10T12:27:10.210Z,35.97
2018-02-10T12:29:37.755Z,35.40
2018-02-10T12:32:05.288Z,37.95
2018-02-10T12:34:32.823Z,31.00
2018-02-10T12:37:00.365Z,20.02
2018-02-10T12:39:27.953Z,38.25
2018-02-10T12:41:55.484Z,21.00
2018-02-10T12:44:23.749Z,36.10
2018-02-10T12:46:51.260Z,28.73
2018-02-10T12:49:24.349Z,30.42
2018-02-10T12:51:52.635Z,31.20
2018-02-10T12:54:20.193Z,32.65
2018-02-10T12:56:47.712Z,31.02
2018-02-10T12:59:15.228Z,29.60
2018-02-10T13:01:42.749Z,40.12
2018-02-10T13:04:10.299Z,34.25
2018-02-10T13:06:37.850Z,34.13
2018-02-10T13:09:05.368Z,37.28
2018-02-10T13:11:32.890Z,33.38
2018-02-10T13:14:00.429Z,35.83
2018-02-10T13:16:27.963Z,32.55
2018-02-10T13:18:55.504Z,35.53
2018-02-10T13:21:23.028Z,27.00
2018-02-10T13:23:50.547Z,29.12
2018-02-10T13:26:18.053Z,36.33
2018-02-10T13:28:45.570Z,31.12
2018-02-10T13:31:13.965Z,35.47
2018-02-10T13:33:41.504Z,36.85
2018-02-10T13:36:09.775Z,34.03
2018-02-10T13:38:37.293Z,39.00
2018-02-10T13:41:04.815Z,40.12
2018-02-10T13:43:33.117Z,33.90
2018-02-10T13:46:00.654Z,36.70
2018-02-10T13:48:38.782Z,37.22
2018-02-10T13:51:07.054Z,25.00
2018-02-10T13:53:34.593Z,35.00
2018-02-10T13:56:02.105Z,36.50
2018-02-10T13:58:29.631Z,39.33
2018-02-10T14:00:57.162Z,41.95
2018-02-10T14:03:25.438Z,39.65
2018-02-10T14:05:53.710Z,28.85
2018-02-10T14:08:21.219Z,39.22
2018-02-10T14:10:48.764Z,39.42
2018-02-10T14:13:16.298Z,39.67
2018-02-10T14:15:43.859Z,42.53
2018-02-10T14:18:11.765Z,37.53
2018-02-10T14:20:39.311Z,38.58
2018-02-10T14:23:06.826Z,38.80
2018-02-10T14:25:34.344Z,39.50
2018-02-10T14:28:01.860Z,44.05
2018-02-10T14:30:30.187Z,44.35
2018-02-10T14:32:57.708Z,39.35
2018-02-10T14:35:26.003Z,42.17
2018-02-10T14:37:53.584Z,37.05
2018-02-10T14:40:21.154Z,36.47
2018-02-10T14:42:48.676Z,41.17
2018-02-10T14:45:16.202Z,36.78
2018-02-10T14:47:43.773Z,40.40
2018-02-10T14:50:11.278Z,30.88
2018-02-10T14:52:39.707Z,34.60
2018-02-10T14:55:07.241Z,37.63
2018-02-10T14:57:34.786Z,42.08
2018-02-10T15:00:02.301Z,40.88
2018-02-10T15:02:30.615Z,37.60
2018-02-10T15:04:58.120Z,39.85
2018-02-10T15:07:25.640Z,37.47
2018-02-10T15:09:53.197Z,38.97
2018-02-10T15:12:20.718Z,37.22
2018-02-10T15:14:49.003Z,33.25
2018-02-10T15:17:16.544Z,37.80
2018-02-10T15:19:44.076Z,39.60
2018-02-10T15:22:11.595Z,43.60
2018-02-10T15:24:39.104Z,29.98
2018-02-10T15:27:06.625Z,37.50
2018-02-10T15:29:45.920Z,38.72
2018-02-10T15:32:25.199Z,38.53
2018-02-10T15:34:58.517Z,37.13
2018-02-10T15:37:26.046Z,40.83
2018-02-10T15:39:53.669Z,41.72
2018-02-10T15:42:21.959Z,27.40
2018-02-10T15:44:50.259Z,36.40
2018-02-10T15:47:17.816Z,37.00
2018-02-10T15:49:45.375Z,38.90
2018-02-10T15:52:12.930Z,38.00
2018-02-10T15:54:40.452Z,40.55
2018-02-10T15:57:08.012Z,45.05
2018-02-10T15:59:35.531Z,38.78
2018-02-10T16:02:03.057Z,40.67
2018-02-10T16:04:30.606Z,36.72
2018-02-10T16:06:58.114Z,44.42
2018-02-10T16:09:25.614Z,34.10
2018-02-10T16:11:53.146Z,36.90
2018-02-10T16:14:20.693Z,37.65
2018-02-10T16:16:48.215Z,37.13
2018-02-10T16:19:16.508Z,37.03
2018-02-10T16:21:44.019Z,37.97
2018-02-10T16:24:11.531Z,34.83
2018-02-10T16:26:39.045Z,37.30
2018-02-10T16:29:07.334Z,33.53
2018-02-10T16:31:35.623Z,37.40
2018-02-10T16:34:03.896Z,36.35
2018-02-10T16:36:32.152Z,35.65
2018-02-10T16:38:59.699Z,38.70
2018-02-10T16:41:27.282Z,37.78
2018-02-10T16:43:55.603Z,36.70
2018-02-10T16:46:23.150Z,27.00
2018-02-10T16:48:50.662Z,38.67
2018-02-10T16:51:18.194Z,39.30
2018-02-10T16:53:45.745Z,39.70
2018-02-10T16:56:13.238Z,40.55
2018-02-10T16:58:40.801Z,36.78
2018-02-10T17:01:08.324Z,33.33
2018-02-10T17:03:35.865Z,34.15
2018-02-10T17:06:03.387Z,38.25
2018-02-10T17:08:30.913Z,40.22
2018-02-10T17:10:59.426Z,41.50
2018-02-10T17:13:26.956Z,42.42
2018-02-10T17:15:54.475Z,41.10
2018-02-10T17:18:21.995Z,41.47
2018-02-10T17:20:49.515Z,36.28
2018-02-10T17:23:17.028Z,38.08
2018-02-10T17:25:44.585Z,29.40
2018-02-10T17:28:12.106Z,37.30
2018-02-10T17:30:39.630Z,35.55
2018-02-10T17:33:07.975Z,36.00
2018-02-10T17:35:35.502Z,35.08
2018-02-10T17:38:03.050Z,32.55
2018-02-10T17:40:30.578Z,37.15
2018-02-10T17:42:58.886Z,38.55
2018-02-10T17:45:26.432Z,37.97
2018-02-10T17:47:54.017Z,36.60
2018-02-10T17:50:21.546Z,36.90
2018-02-10T17:52:49.078Z,38.10
2018-02-10T17:55:16.630Z,25.10
2018-02-10T17:57:44.141Z,36.05
2018-02-10T18:00:11.687Z,37.85
2018-02-10T18:02:39.212Z,39.15
2018-02-10T18:05:06.718Z,33.30
2018-02-10T18:07:34.282Z,38.08
2018-02-10T18:10:02.043Z,32.42
2018-02-10T18:12:29.575Z,36.35
2018-02-10T18:14:57.857Z,31.92
2018-02-10T18:17:26.147Z,36.78
2018-02-10T18:19:53.677Z,21.12
2018-02-10T18:22:21.199Z,39.63
2018-02-10T18:24:48.707Z,35.17
2018-02-10T18:27:17.051Z,36.50
2018-02-10T18:29:44.570Z,35.10
2018-02-10T18:32:12.120Z,34.33
2018-02-10T18:34:39.648Z,33.80
2018-02-10T18:37:07.172Z,24.63
2018-02-10T18:39:34.745Z,33.28
2018-02-10T18:42:02.247Z,36.90
2018-02-10T18:44:29.772Z,23.92
2018-02-10T18:46:57.285Z,35.25
2018-02-10T18:49:24.792Z,36.33
2018-02-10T18:51:52.311Z,37.40
2018-02-10T18:54:19.826Z,29.95
2018-02-10T18:56:47.345Z,35.63
2018-02-10T18:59:14.856Z,27.98
2018-02-10T19:01:42.360Z,32.85
2018-02-10T19:04:09.875Z,34.00
2018-02-10T19:06:38.183Z,34.05
2018-02-10T19:09:05.715Z,27.30
2018-02-10T19:11:33.236Z,30.30
2018-02-10T19:14:00.767Z,30.55
2018-02-10T19:16:28.309Z,30.88
2018-02-10T19:18:55.866Z,26.25
2018-02-10T19:21:23.439Z,35.03
2018-02-10T19:23:50.998Z,38.88
2018-02-10T19:26:18.533Z,36.90
2018-02-10T19:28:46.094Z,34.65
2018-02-10T19:31:14.397Z,32.03
2018-02-10T19:33:41.924Z,38.83
2018-02-10T19:36:09.459Z,33.92
2018-02-10T19:38:36.966Z,34.55
2018-02-10T19:41:04.507Z,37.88
2018-02-10T19:43:32.811Z,37.97
2018-02-10T19:46:00.342Z,30.55
2018-02-10T19:48:28.647Z,31.92
2018-02-10T19:50:56.180Z,37.78
2018-02-10T19:53:23.747Z,34.17
2018-02-10T19:55:52.015Z,34.05
2018-02-10T19:58:20.314Z,39.28
2018-02-10T20:00:47.830Z,22.30
2018-02-10T20:03:15.331Z,19.52
2018-02-10T20:05:42.840Z,33.35
2018-02-10T20:08:10.385Z,39.30
2018-02-10T20:10:37.924Z,34.35
2018-02-10T20:13:05.486Z,33.85
2018-02-10T20:15:33.024Z,28.30
2018-02-10T20:18:00.608Z,35.72
2018-02-10T20:20:28.143Z,34.80
2018-02-10T20:22:56.426Z,32.65
2018-02-10T20:25:23.997Z,33.15
2018-02-10T20:27:51.549Z,38.33
2018-02-10T20:30:19.096Z,32.75
2018-02-10T20:32:46.642Z,35.85
2018-02-10T20:35:14.156Z,36.00
2018-02-10T20:37:41.702Z,35.75
2018-02-10T20:40:09.293Z,99.20
2018-02-10T20:42:36.832Z,39.38
2018-02-10T20:45:04.363Z,34.85
2018-02-10T20:47:32.646Z,38.03
2018-02-10T20:50:00.206Z,38.88
2018-02-10T20:52:27.721Z,32.72
2018-02-10T20:54:55.230Z,33.90
2018-02-10T20:57:22.762Z,39.78
2018-02-10T20:59:51.051Z,32.38
2018-02-10T21:02:19.637Z,34.85
2018-02-10T21:04:47.202Z,36.97
2018-02-10T21:07:15.833Z,36.25
2018-02-10T21:09:43.487Z,39.97
2018-02-10T21:12:12.426Z,32.25
2018-02-10T21:14:41.083Z,34.58
2018-02-10T21:17:08.662Z,36.78
2018-02-10T21:19:36.968Z,33.88
2018-02-10T21:22:06.805Z,35.13
2018-02-10T21:24:34.702Z,37.50
2018-02-10T21:27:02.259Z,30.65
2018-02-10T21:29:29.988Z,29.20
2018-02-10T21:31:57.635Z,34.80
2018-02-10T21:34:25.302Z,34.70
2018-02-10T21:36:53.265Z,31.33
2018-02-10T21:39:20.984Z,33.65
2018-02-10T21:41:48.534Z,32.67
2018-02-10T21:44:16.066Z,32.78
2018-02-10T21:46:43.598Z,31.45
2018-02-10T21:49:11.898Z,32.47
2018-02-10T21:51:39.439Z,33.92
2018-02-10T21:54:06.995Z,35.38
2018-02-10T21:56:35.288Z,37.63
2018-02-10T21:59:02.828Z,35.95
2018-02-10T22:01:30.376Z,36.60
2018-02-10T22:03:57.899Z,37.88
2018-02-10T22:06:25.418Z,36.15
2018-02-10T22:08:52.951Z,35.38
2018-02-10T22:11:20.462Z,37.75
2018-02-10T22:13:47.972Z,38.22
2018-02-10T22:16:15.511Z,39.80
2018-02-10T22:18:43.014Z,36.85
2018-02-10T22:21:11.313Z,41.00
2018-02-10T22:23:38.846Z,28.58
2018-02-10T22:26:06.367Z,36.55
2018-02-10T22:28:33.883Z,36.35
2018-02-10T22:31:01.395Z,32.45
2018-02-10T22:33:28.974Z,23.58
2018-02-10T22:35:57.250Z,37.15
2018-02-10T22:38:25.528Z,35.53
2018-02-10T22:40:53.829Z,36.72
2018-02-10T22:43:21.381Z,38.17
2018-02-10T22:45:48.911Z,38.05
2018-02-10T22:48:16.437Z,37.17
2018-02-10T22:50:43.959Z,39.67
2018-02-10T22:53:11.496Z,38.92
2018-02-10T22:55:38.995Z,36.20
2018-02-10T22:58:06.507Z,33.08
2018-02-10T23:00:34.024Z,35.00
2018-02-10T23:03:02.305Z,36.88
2018-02-10T23:05:29.889Z,35.97
2018-02-10T23:07:57.411Z,40.35
2018-02-10T23:10:24.943Z,27.62
2018-02-10T23:12:53.353Z,35.67
2018-02-10T23:15:20.866Z,35.85
2018-02-10T23:17:48.388Z,44.10
2018-02-10T23:20:15.896Z,39.00
2018-02-10T23:22:43.448Z,37.97
2018-02-10T23:25:10.979Z,46.65
2018-02-10T23:27:38.491Z,28.83
2018-02-10T23:30:06.007Z,41.55
2018-02-10T23:32:33.536Z,39.25
2018-02-10T23:35:01.042Z,40.28
2018-02-10T23:37:28.582Z,37.95
2018-02-10T23:39:56.119Z,38.42
2018-02-10T23:42:23.640Z,37.53
2018-02-10T23:44:51.139Z,41.90
2018-02-10T23:47:18.655Z,42.22
2018-02-10T23:49:46.940Z,46.15
2018-02-10T23:52:15.222Z,40.75
2018-02-10T23:54:42.760Z,45.17
2018-02-10T23:57:10.278Z,45.75
2018-02-10T23:59:38.641Z,48.22
